March Air Force Base, California
Current Conditions -  °F | °C
As of 1:52 AM on Monday 22 Dec 2014 (Local Time) from KTRM Reporting Station
Clear Clear  
Wind Chill: 44°   Ceiling: Unl
Heat Index: 44°   Visibility: 10mi
Dew Point: 40°   Wind: 0mph
Humidity: 85%   Direction: NA
Pressure: 30.02"   Gusts: NA
Location:  33.7529°N, 116.0556°W
Report Text: KTRM 220952Z AUTO 00000KT 10SM CLR 07/04 A3002 RMK AO2 SLP166 T00670044 TSNO
Loading
Personal Weather Stations






























Interactive Weather Map New forecast layout! Learn more

10-Day Weather Forecast

Advertisements
Track Severe Weather on mobile